Data for 07/10/2007

Time Sea-Level Adjusted Pressure Absolute Pressure Temperature Relative Humidity Dew Point   
(mb) (inHg) (mb) (inHg) (C) (F) (%) (C) (F)
00:05 1024 30.24 854 25.22 14.9 58.9 63 8.1 46.6
00:10 1024 30.24 854 25.22 14.9 58.8 63 8.1 46.6
00:15 1024 30.24 854 25.22 14.8 58.7 64 8.1 46.5
00:20 1024 30.24 854 25.22 14.7 58.5 64 8.1 46.6
00:25 1025 30.27 854 25.22 14.6 58.4 65 8.1 46.6
00:30 1025 30.27 854 25.22 14.5 58.1 65 8.1 46.6
00:35 1025 30.27 854 25.22 14.4 57.9 66 8.2 46.8
00:40 1025 30.27 854 25.22 14.3 57.7 66 8.1 46.5
00:45 1025 30.27 854 25.22 14.3 57.7 66 8 46.4
00:50 1025 30.27 854 25.22 14.2 57.6 66 8 46.5
00:55 1025 30.27 854 25.22 14 57.2 67 7.9 46.3
01:00 1025 30.27 854 25.22 13.8 56.9 66 7.7 45.9
01:05 1025 30.27 854 25.22 13.7 56.6 66 7.5 45.5
01:10 1025 30.27 854 25.22 13.6 56.5 66 7.4 45.4
01:15 1025 30.27 854 25.22 13.5 56.2 66 7.4 45.3
01:20 1025 30.27 854 25.22 13.4 56 66 7.3 45.1
01:25 1025 30.27 854 25.22 13.3 56 67 7.3 45.2
01:30 1025 30.27 854 25.22 13.3 55.9 66 7.1 44.8
01:35 1025 30.27 855 25.25 13.3 55.9 67 7.3 45.1
01:40 1025 30.27 855 25.25 13.1 55.6 67 7.2 44.9
01:45 1025 30.27 855 25.25 13.1 55.5 67 7.1 44.8
01:50 1025 30.27 855 25.25 13 55.4 67 7.1 44.7
01:55 1025 30.27 855 25.25 13 55.4 66 7 44.5
02:00 1025 30.27 855 25.25 13 55.3 67 6.9 44.5
02:05 1025 30.27 855 25.25 13 55.3 67 7 44.7
02:10 1025 30.27 855 25.25 12.9 55.2 67 7 44.7
02:15 1025 30.27 855 25.25 12.7 54.9 68 7 44.7
02:20 1026 30.3 855 25.25 12.6 54.7 69 7 44.7
02:25 1026 30.3 855 25.25 12.6 54.6 69 7.1 44.8
02:30 1025 30.27 855 25.25 12.5 54.5 69 7.1 44.8
02:35 1025 30.27 855 25.25 12.5 54.4 70 7.1 44.8
02:40 1025 30.27 855 25.25 12.4 54.3 70 7.1 44.7
02:45 1025 30.27 855 25.25 12.4 54.2 70 7 44.6
02:50 1026 30.3 855 25.25 12.3 54.2 70 7 44.6
02:55 1025 30.27 855 25.25 12.3 54.2 69 6.9 44.4
03:00 1025 30.27 855 25.25 12.2 54 69 6.8 44.3
03:05 1026 30.3 855 25.25 12.1 53.9 69 6.6 43.9
03:10 1025 30.27 855 25.25 12.1 53.8 68 6.4 43.6
03:15 1025 30.27 855 25.25 12.2 53.9 67 6.2 43.2
03:20 1025 30.27 855 25.25 12.3 54.1 66 6.2 43.1
03:25 1025 30.27 855 25.25 12.2 53.9 67 6.2 43.1
03:30 1025 30.27 855 25.25 12.1 53.8 66 6 42.9
03:35 1025 30.27 855 25.25 12.1 53.8 66 6.1 42.9
03:40 1025 30.27 855 25.25 12 53.6 66 6 42.8
03:45 1025 30.27 855 25.25 12 53.6 66 5.9 42.6
03:50 1025 30.27 854 25.22 12 53.6 66 5.9 42.6
03:55 1025 30.27 854 25.22 12 53.7 66 5.9 42.6
04:00 1025 30.27 854 25.22 12 53.5 66 5.9 42.6
04:05 1025 30.27 854 25.22 11.9 53.5 66 5.9 42.6
04:10 1025 30.27 854 25.22 11.9 53.4 66 5.9 42.5
04:15 1025 30.27 855 25.25 11.8 53.3 67 5.9 42.5
04:20 1025 30.27 855 25.25 11.8 53.3 66 5.8 42.5
04:25 1025 30.27 855 25.25 11.8 53.2 67 5.8 42.4
04:30 1025 30.27 855 25.25 11.8 53.2 67 5.8 42.5
04:35 1025 30.27 855 25.25 11.8 53.2 67 5.8 42.5
04:40 1025 30.27 854 25.22 11.7 53.1 67 5.8 42.5
04:45 1025 30.27 854 25.22 11.7 53.1 67 5.8 42.4
04:50 1025 30.27 855 25.25 11.6 52.9 67 5.8 42.4
04:55 1025 30.27 855 25.25 11.6 52.9 67 5.8 42.5
05:00 1025 30.27 855 25.25 11.6 52.8 68 5.8 42.5
05:05 1025 30.27 855 25.25 11.6 52.9 67 5.8 42.5
05:10 1025 30.27 855 25.25 11.7 53.1 67 5.9 42.6
05:15 1025 30.27 855 25.25 11.7 53 68 5.9 42.6
05:20 1025 30.27 855 25.25 11.7 53.1 68 6 42.7
05:25 1025 30.27 855 25.25 11.7 53.1 68 6 42.8
05:30 1026 30.3 855 25.25 11.8 53.2 68 6.1 43
05:35 1025 30.27 855 25.25 11.7 53.1 67 5.9 42.7
05:40 1025 30.27 855 25.25 11.7 53 68 5.9 42.7
05:45 1025 30.27 855 25.25 11.5 52.7 68 5.8 42.5
05:50 1025 30.27 855 25.25 11.5 52.7 68 5.8 42.4
05:55 1025 30.27 855 25.25 11.5 52.7 68 5.9 42.5
06:00 1025 30.27 855 25.25 11.4 52.5 68 5.8 42.4
06:05 1025 30.27 855 25.25 11.3 52.4 69 5.8 42.5
06:10 1025 30.27 855 25.25 11.3 52.3 68 5.7 42.3
06:15 1025 30.27 855 25.25 11.3 52.4 68 5.7 42.2
06:20 1026 30.3 855 25.25 11.3 52.3 69 5.8 42.4
06:25 1026 30.3 855 25.25 11.3 52.3 69 5.8 42.4
06:30 1026 30.3 855 25.25 11.3 52.3 69 5.9 42.6
06:35 1026 30.3 855 25.25 11.1 52 70 5.8 42.5
06:40 1026 30.3 855 25.25 11.2 52.2 69 5.8 42.4
06:45 1026 30.3 855 25.25 11.4 52.6 67 5.6 42.1
06:50 1026 30.3 855 25.25 11.6 52.9 67 5.8 42.5
06:55 1026 30.3 855 25.25 11.9 53.4 66 5.8 42.4
07:00 1026 30.3 855 25.25 12.1 53.7 65 5.7 42.3
07:05 1026 30.3 855 25.25 12.3 54.1 64 5.7 42.2
07:10 1026 30.3 855 25.25 12.5 54.6 63 5.7 42.3
07:15 1026 30.3 855 25.25 12.7 54.9 62 5.8 42.4
07:20 1026 30.3 855 25.25 12.9 55.2 61 5.7 42.2
07:25 1026 30.3 855 25.25 13 55.3 61 5.7 42.2
07:30 1026 30.3 855 25.25 13.1 55.6 60 5.7 42.2
07:35 1026 30.3 855 25.25 13.4 56 60 5.8 42.4
07:40 1026 30.3 855 25.25 13.3 56 59 5.5 41.8
07:45 1026 30.3 855 25.25 13.4 56.2 59 5.7 42.3
07:50 1026 30.3 855 25.25 13.6 56.4 59 5.7 42.3
07:55 1026 30.3 855 25.25 13.9 57 57 5.6 42.1
08:00 1026 30.3 855 25.25 13.9 57 56 5.3 41.6
08:05 1026 30.3 855 25.25 13.9 57 57 5.6 42
08:10 1026 30.3 855 25.25 14.3 57.7 57 6 42.8
08:15 1026 30.3 855 25.25 14.5 58.1 60 6.9 44.5
08:20 1026 30.3 855 25.25 13.9 56.9 65 7.4 45.4
08:25 1026 30.3 855 25.25 14 57.2 64 7.4 45.4
08:30 1026 30.3 855 25.25 14 57.1 64 7.3 45.1
08:35 1026 30.3 855 25.25 14 57.2 65 7.7 45.8
08:40 1026 30.3 855 25.25 13.8 56.8 66 7.5 45.5
08:45 1026 30.3 855 25.25 13.8 56.8 65 7.2 45
08:50 1026 30.3 855 25.25 14.1 57.4 63 7.3 45.2
08:55 1026 30.3 855 25.25 14.4 58 63 7.6 45.7
09:00 1026 30.3 855 25.25 14.8 58.7 59 6.8 44.3
09:05 1026 30.3 855 25.25 15.2 59.4 59 7.4 45.2
09:10 1026 30.3 855 25.25 14.7 58.4 61 7.2 45
09:15 1026 30.3 855 25.25 15.6 60 58 7.5 45.5
09:20 1026 30.3 855 25.25 15.2 59.4 60 7.6 45.6
09:25 1026 30.3 855 25.25 15.4 59.7 58 7.3 45.2
09:30 1026 30.3 855 25.25 15.8 60.4 56 7.2 44.9
09:35 1026 30.3 855 25.25 16.7 62 54 7.4 45.3
09:40 1026 30.3 855 25.25 16.8 62.2 55 7.7 45.9
09:45 1025 30.27 855 25.25 16.3 61.3 54 7 44.6
09:50 1025 30.27 855 25.25 16.3 61.4 55 7.4 45.4
09:55 1025 30.27 855 25.25 16.7 62 55 7.8 46
10:00 1025 30.27 855 25.25 16.7 62 53 7.3 45.1
10:05 1025 30.27 855 25.25 17 62.5 55 7.9 46.2
10:10 1025 30.27 855 25.25 17.4 63.3 51 7.3 45.2
10:15 1025 30.27 855 25.25 18.1 64.5 50 7.7 45.9
10:20 1025 30.27 855 25.25 18.7 65.7 48 7.6 45.7
10:25 1025 30.27 854 25.22 18.7 65.7 48 7.5 45.6
10:30 1025 30.27 854 25.22 18.2 64.7 50 7.7 45.9
10:35 1025 30.27 854 25.22 18.2 64.7 49 7.2 45
10:40 1025 30.27 854 25.22 18.8 65.9 46 7 44.5
10:45 1025 30.27 854 25.22 19.2 66.5 47 7.7 45.9
10:50 1025 30.27 854 25.22 19 66.1 45 7 44.6
10:55 1025 30.27 854 25.22 18.9 66.1 45 7 44.6
11:00 1025 30.27 854 25.22 18.6 65.5 46 7 44.5
11:05 1025 30.27 854 25.22 19 66.1 46 7.1 44.8
11:10 1025 30.27 854 25.22 18.9 66 44 6.6 43.9
11:15 1025 30.27 854 25.22 19 66.1 44 6.5 43.7
11:20 1025 30.27 854 25.22 19.4 66.8 45 7.4 45.3
11:25 1025 30.27 854 25.22 19.9 67.8 42 6.7 44.1
11:30 1025 30.27 854 25.22 19.8 67.6 42 6.7 44.1
11:35 1025 30.27 854 25.22 20.1 68.1 39 5.8 42.5
11:40 1025 30.27 854 25.22 20 68.1 40 6.1 43.1
11:45 1025 30.27 854 25.22 20.3 68.5 38 5.8 42.4
11:50 1025 30.27 854 25.22 20.1 68.1 37 5.1 41.1
11:55 1024 30.24 854 25.22 20.6 69 38 6.1 42.9
12:00 1024 30.24 854 25.22 20.4 68.7 37 5.5 41.9
12:05 1024 30.24 854 25.22 19.8 67.6 36 4.6 40.2
12:10 1024 30.24 854 25.22 21 69.7 34 4.5 40.1
12:15 1024 30.24 854 25.22 21.1 70 36 5.6 42.1
12:20 1024 30.24 853 25.19 21.5 70.7 33 4.5 40.2
12:25 1024 30.24 853 25.19 21.7 71 35 5.7 42.2
12:30 1024 30.24 853 25.19 21.1 70 32 4.1 39.4
12:35 1024 30.24 853 25.19 21.9 71.4 32 4.6 40.3
12:40 1024 30.24 853 25.19 21.9 71.3 33 5 41
12:45 1024 30.24 853 25.19 21.6 70.8 34 5.2 41.4
12:50 1024 30.24 853 25.19 21.5 70.6 34 5.1 41.2
12:55 1024 30.24 853 25.19 22.2 71.9 34 5.8 42.4
13:00 1024 30.24 853 25.19 22.4 72.4 30 4.4 40
13:05 1024 30.24 853 25.19 22.8 73 31 4.8 40.7
13:10 1024 30.24 853 25.19 22.4 72.2 33 5.3 41.5
13:15 1024 30.24 853 25.19 22.9 73.1 30 4.5 40.2
13:20 1024 30.24 853 25.19 23.5 74.4 30 5.4 41.6
13:25 1024 30.24 853 25.19 23.9 74.9 30 5.4 41.7
13:30 1024 30.24 853 25.19 23.7 74.7 29 4.9 40.8
13:35 1024 30.24 853 25.19 23.7 74.7 29 5 41.1
13:40 1023 30.21 853 25.19 23.6 74.4 29 4.9 40.9
13:45 1023 30.21 853 25.19 23.4 74.1 31 5.4 41.7
13:50 1023 30.21 853 25.19 22.9 73.3 31 5 41
13:55 1023 30.21 853 25.19 23.5 74.2 29 4.8 40.6
14:00 1023 30.21 853 25.19 24.6 76.3 27 4.7 40.5
14:05 1023 30.21 853 25.19 24.8 76.7 27 4.7 40.4
14:10 1023 30.21 852 25.16 24.8 76.6 26 4.4 39.9
14:15 1023 30.21 852 25.16 24.8 76.7 26 4.3 39.8
14:20 1023 30.21 852 25.16 25.6 78.1 25 4.5 40.1
14:25 1023 30.21 852 25.16 25.7 78.3 24 4.1 39.4
14:30 1023 30.21 852 25.16 25.8 78.4 25 4.4 39.9
14:35 1023 30.21 852 25.16 26.1 79 25 4.6 40.4
14:40 1023 30.21 852 25.16 26 78.9 25 4.7 40.5
14:45 1023 30.21 852 25.16 25.5 77.9 25 4.5 40
14:50 1023 30.21 852 25.16 25.9 78.5 24 4.2 39.6
14:55 1023 30.21 852 25.16 25.6 78 24 3.5 38.3
15:00 1023 30.21 852 25.16 25.2 77.3 25 4 39.2
15:05 1023 30.21 852 25.16 25.2 77.4 24 3.5 38.3
15:10 1023 30.21 852 25.16 26 78.7 23 3.7 38.7
15:15 1023 30.21 852 25.16 25.9 78.6 24 3.8 38.9
15:20 1023 30.21 852 25.16 26.2 79.2 25 4.8 40.6
15:25 1023 30.21 852 25.16 26.6 79.9 25 5.1 41.2
15:30 1023 30.21 852 25.16 26.5 79.7 26 5.6 42
15:35 1023 30.21 852 25.16 25.8 78.4 26 5.3 41.5
15:40 1023 30.21 852 25.16 25.8 78.4 26 5.2 41.3
15:45 1023 30.21 852 25.16 25.4 77.6 29 6.1 42.9
15:50 1023 30.21 852 25.16 25.8 78.4 26 5 41
15:55 1023 30.21 852 25.16 26.7 80 25 5.4 41.7
16:00 1023 30.21 852 25.16 27.1 80.7 25 5.9 42.6
16:05 1023 30.21 852 25.16 27.1 80.7 25 5.8 42.5
16:10 1023 30.21 852 25.16 26.8 80.2 25 5.1 41.2
16:15 1023 30.21 852 25.16 25.2 77.4 28 5.8 42.5
16:20 1023 30.21 852 25.16 25.5 77.9 26 4.9 40.8
16:25 1023 30.21 852 25.16 26 78.7 27 6 42.7
16:30 1023 30.21 852 25.16 26.7 80.1 26 5.8 42.5
16:35 1023 30.21 852 25.16 27.3 81.1 26 6.6 43.9
16:40 1023 30.21 852 25.16 26.8 80.2 26 6.2 43.2
16:45 1023 30.21 852 25.16 27.2 80.9 25 5.6 42.2
16:50 1023 30.21 852 25.16 27.3 81.1 25 5.6 42.2
16:55 1023 30.21 852 25.16 27.5 81.5 24 5.6 42.1
17:00 1023 30.21 852 25.16 26.9 80.4 26 6 42.7
17:05 1023 30.21 852 25.16 26.8 80.3 26 5.8 42.5
17:10 1022 30.18 852 25.16 26.3 79.4 29 6.9 44.4
17:15 1022 30.18 852 25.16 26.2 79.2 27 5.8 42.4
17:20 1022 30.18 852 25.16 26.2 79.1 26 5.6 42
17:25 1022 30.18 852 25.16 26.9 80.4 25 5.4 41.7
17:30 1022 30.18 852 25.16 27.9 82.2 24 5.9 42.6
17:35 1022 30.18 852 25.16 28.5 83.3 23 5.9 42.5
17:40 1022 30.18 851 25.13 28.5 83.3 23 5.9 42.6
17:45 1022 30.18 851 25.13 28.2 82.7 24 5.9 42.6
17:50 1022 30.18 851 25.13 26.8 80.3 25 5.6 42.1
17:55 1022 30.18 851 25.13 26.9 80.5 25 5.5 41.9
18:00 1022 30.18 851 25.13 26.6 79.8 26 5.8 42.5
18:05 1022 30.18 851 25.13 27.5 81.5 25 5.8 42.4
18:10 1022 30.18 851 25.13 27.2 80.9 24 5.4 41.7
18:15 1022 30.18 851 25.13 26.6 79.9 25 5 41
18:20 1022 30.18 851 25.13 25.9 78.7 26 5.1 41.1
18:25 1022 30.18 851 25.13 25.7 78.3 24 4.1 39.4
18:30 1022 30.18 851 25.13 25.4 77.7 25 4.1 39.3
18:35 1022 30.18 851 25.13 25.3 77.6 25 3.9 39
18:40 1022 30.18 851 25.13 25.2 77.4 26 4.6 40.2
18:45 1022 30.18 851 25.13 25.2 77.4 26 4.4 39.9
18:50 1022 30.18 851 25.13 25.1 77.1 25 3.9 39.1
18:55 1022 30.18 851 25.13 24.9 76.8 26 4.5 40.1
19:00 1022 30.18 851 25.13 24.8 76.6 25 3.9 39.1
19:05 1022 30.18 851 25.13 24.6 76.2 26 4.1 39.5
19:10 1022 30.18 851 25.13 24.5 76 26 3.9 39.1
19:15 1022 30.18 851 25.13 24.3 75.7 27 4.1 39.4
19:20 1022 30.18 851 25.13 24.1 75.3 27 4.1 39.4
19:25 1022 30.18 851 25.13 24 75.2 26 3.6 38.5
19:30 1022 30.18 851 25.13 23.7 74.7 28 4.2 39.6
19:35 1022 30.18 851 25.13 23.6 74.5 27 4 39.2
19:40 1022 30.18 851 25.13 23.5 74.2 28 4 39.3
19:45 1022 30.18 851 25.13 23.4 74.1 28 4.3 39.7
19:50 1022 30.18 852 25.16 23.3 74 28 4 39.2
19:55 1022 30.18 852 25.16 23.2 73.8 28 4.1 39.4
20:00 1022 30.18 852 25.16 23.1 73.5 28 3.9 39.1
20:05 1022 30.18 852 25.16 22.9 73.3 29 4 39.1
20:10 1022 30.18 852 25.16 22.8 73 29 4.1 39.4
20:15 1022 30.18 852 25.16 22.6 72.7 30 4.3 39.7
20:20 1022 30.18 852 25.16 22.5 72.5 30 4.4 39.9
20:25 1022 30.18 852 25.16 22.4 72.3 30 4.3 39.7
20:30 1023 30.21 852 25.16 22.3 72.1 30 4.3 39.7
20:35 1023 30.21 852 25.16 22.1 71.9 31 4.4 39.9
20:40 1023 30.21 852 25.16 22 71.7 31 4.5 40.1
20:45 1023 30.21 852 25.16 21.8 71.3 32 4.7 40.4
20:50 1023 30.21 852 25.16 21.7 71 33 4.7 40.4
20:55 1023 30.21 852 25.16 21.5 70.7 33 4.6 40.2
21:00 1023 30.21 852 25.16 21.3 70.3 34 4.8 40.6
21:05 1023 30.21 852 25.16 21 69.9 34 4.7 40.4
21:10 1023 30.21 852 25.16 20.9 69.5 34 4.7 40.4
21:15 1023 30.21 852 25.16 20.7 69.3 34 4.5 40.1
21:20 1023 30.21 852 25.16 20.7 69.3 34 4.4 40
21:25 1023 30.21 852 25.16 20.6 69.1 34 4.3 39.8
21:30 1023 30.21 852 25.16 20.5 69 35 4.5 40.2
21:35 1023 30.21 852 25.16 20.3 68.6 35 4.5 40.1
21:40 1023 30.21 852 25.16 20.1 68.1 36 4.7 40.5
21:45 1023 30.21 852 25.16 19.8 67.7 36 4.5 40.1
21:50 1023 30.21 852 25.16 19.8 67.7 36 4.4 39.8
21:55 1023 30.21 852 25.16 19.8 67.6 36 4.3 39.7
22:00 1023 30.21 852 25.16 19.7 67.4 35 4.1 39.4
22:05 1023 30.21 852 25.16 19.6 67.3 35 4.1 39.3
22:10 1023 30.21 852 25.16 19.5 67.1 36 4.2 39.6
22:15 1023 30.21 852 25.16 19.4 67 36 4 39.3
22:20 1023 30.21 852 25.16 19.4 66.9 35 3.9 39
22:25 1023 30.21 852 25.16 19.4 66.9 36 3.9 39
22:30 1023 30.21 852 25.16 19.2 66.6 36 3.9 39.1
22:35 1023 30.21 852 25.16 19.1 66.3 37 4.2 39.5
22:40 1023 30.21 852 25.16 19 66.1 37 4 39.2
22:45 1023 30.21 852 25.16 19 66.1 37 4.1 39.4
22:50 1023 30.21 852 25.16 18.9 66 37 4.1 39.3
22:55 1023 30.21 852 25.16 18.8 65.8 37 4.1 39.4
23:00 1023 30.21 852 25.16 18.7 65.7 38 4.1 39.4
23:05 1023 30.21 852 25.16 18.8 65.8 37 4.1 39.3
23:10 1023 30.21 852 25.16 18.7 65.7 37 4.1 39.3
23:15 1023 30.21 852 25.16 18.7 65.7 38 4.1 39.5
23:20 1023 30.21 852 25.16 18.5 65.4 38 4.2 39.5
23:25 1023 30.21 852 25.16 18.3 65 39 4.3 39.8
23:30 1023 30.21 852 25.16 18.1 64.7 40 4.3 39.8
23:35 1023 30.21 852 25.16 18.1 64.6 39 4.1 39.5
23:40 1023 30.21 853 25.19 18.1 64.6 40 4.3 39.7
23:45 1023 30.21 852 25.16 18 64.5 40 4.3 39.7
23:50 1023 30.21 853 25.19 18 64.4 40 4.3 39.7
23:55 1023 30.21 853 25.19 17.9 64.3 40 4.3 39.7
24:00 1023 30.21 853 25.19 17.9 64.3 40 4.1 39.4